sensor_id;sensor_type;location;lat;lon;timestamp;pressure;altitude;pressure_sealevel;temperature;humidity
48364;BME280;34170;54.364;18.582;2023-05-10T00:00:03;100775.28;;;9.91;47.33
48364;BME280;34170;54.364;18.582;2023-05-10T00:02:59;100774.28;;;9.92;47.89
48364;BME280;34170;54.364;18.582;2023-05-10T00:05:26;100767.44;;;10.00;48.49
48364;BME280;34170;54.364;18.582;2023-05-10T00:07:54;100766.34;;;9.70;48.42
48364;BME280;34170;54.364;18.582;2023-05-10T00:10:21;100761.63;;;9.83;48.01
48364;BME280;34170;54.364;18.582;2023-05-10T00:12:48;100772.47;;;9.93;47.81
48364;BME280;34170;54.364;18.582;2023-05-10T00:15:16;100772.09;;;9.65;48.40
48364;BME280;34170;54.364;18.582;2023-05-10T00:17:43;100768.38;;;9.78;48.19
48364;BME280;34170;54.364;18.582;2023-05-10T00:20:11;100763.56;;;9.60;49.31
48364;BME280;34170;54.364;18.582;2023-05-10T00:22:38;100764.81;;;9.56;48.57
48364;BME280;34170;54.364;18.582;2023-05-10T00:25:06;100773.09;;;9.53;48.85
48364;BME280;34170;54.364;18.582;2023-05-10T00:27:34;100768.09;;;9.60;49.35
48364;BME280;34170;54.364;18.582;2023-05-10T00:30:01;100773.84;;;9.55;49.72
48364;BME280;34170;54.364;18.582;2023-05-10T00:32:30;100767.44;;;9.67;49.16
48364;BME280;34170;54.364;18.582;2023-05-10T00:34:58;100775.81;;;9.42;49.68
48364;BME280;34170;54.364;18.582;2023-05-10T00:37:26;100769.22;;;9.57;49.58
48364;BME280;34170;54.364;18.582;2023-05-10T00:39:54;100774.25;;;9.39;49.59
48364;BME280;34170;54.364;18.582;2023-05-10T00:42:22;100765.09;;;9.42;49.41
48364;BME280;34170;54.364;18.582;2023-05-10T00:44:51;100762.41;;;9.42;49.58
48364;BME280;34170;54.364;18.582;2023-05-10T00:47:19;100765.59;;;9.35;49.66
48364;BME280;34170;54.364;18.582;2023-05-10T00:49:46;100759.06;;;9.49;49.52
48364;BME280;34170;54.364;18.582;2023-05-10T00:52:14;100768.50;;;9.44;49.43
48364;BME280;34170;54.364;18.582;2023-05-10T00:54:41;100769.50;;;9.43;49.55
48364;BME280;34170;54.364;18.582;2023-05-10T00:57:10;100761.19;;;9.34;50.22
48364;BME280;34170;54.364;18.582;2023-05-10T00:59:38;100755.06;;;9.55;49.60
48364;BME280;34170;54.364;18.582;2023-05-10T01:02:06;100757.16;;;9.51;49.35
48364;BME280;34170;54.364;18.582;2023-05-10T01:04:34;100753.16;;;9.34;49.93
48364;BME280;34170;54.364;18.582;2023-05-10T01:07:03;100753.13;;;9.46;49.89
48364;BME280;34170;54.364;18.582;2023-05-10T01:09:30;100758.44;;;9.13;51.06
48364;BME280;34170;54.364;18.582;2023-05-10T01:12:00;100742.88;;;9.40;51.14
48364;BME280;34170;54.364;18.582;2023-05-10T01:14:29;100753.94;;;9.14;51.57
48364;BME280;34170;54.364;18.582;2023-05-10T01:16:57;100750.03;;;9.18;51.14
48364;BME280;34170;54.364;18.582;2023-05-10T01:19:26;100750.00;;;9.29;51.52
48364;BME280;34170;54.364;18.582;2023-05-10T01:41:47;100745.16;;;9.01;53.11
48364;BME280;34170;54.364;18.582;2023-05-10T01:44:38;100733.72;;;8.76;53.66
48364;BME280;34170;54.364;18.582;2023-05-10T01:47:10;100746.41;;;8.63;54.24
48364;BME280;34170;54.364;18.582;2023-05-10T01:49:45;100743.13;;;8.59;54.90
48364;BME280;34170;54.364;18.582;2023-05-10T01:52:18;100739.34;;;8.50;55.51
48364;BME280;34170;54.364;18.582;2023-05-10T01:54:53;100743.72;;;8.51;55.33
48364;BME280;34170;54.364;18.582;2023-05-10T01:57:26;100749.22;;;8.61;55.17
48364;BME280;34170;54.364;18.582;2023-05-10T01:59:54;100746.88;;;8.56;55.69
48364;BME280;34170;54.364;18.582;2023-05-10T02:02:23;100738.66;;;8.24;56.80
48364;BME280;34170;54.364;18.582;2023-05-10T02:04:53;100740.59;;;8.33;56.86
48364;BME280;34170;54.364;18.582;2023-05-10T02:07:23;100742.13;;;7.91;57.84
48364;BME280;34170;54.364;18.582;2023-05-10T02:09:51;100737.91;;;8.22;57.58
48364;BME280;34170;54.364;18.582;2023-05-10T02:12:20;100739.06;;;8.42;56.58
48364;BME280;34170;54.364;18.582;2023-05-10T02:14:50;100731.22;;;8.28;56.80
48364;BME280;34170;54.364;18.582;2023-05-10T02:17:20;100738.53;;;8.37;56.56
48364;BME280;34170;54.364;18.582;2023-05-10T02:19:49;100725.47;;;8.10;57.59
48364;BME280;34170;54.364;18.582;2023-05-10T02:22:19;100725.25;;;8.13;57.70
48364;BME280;34170;54.364;18.582;2023-05-10T02:24:48;100741.00;;;8.40;57.25
48364;BME280;34170;54.364;18.582;2023-05-10T02:27:19;100735.97;;;8.13;57.52
48364;BME280;34170;54.364;18.582;2023-05-10T02:29:47;100736.63;;;8.39;56.81
48364;BME280;34170;54.364;18.582;2023-05-10T02:32:16;100725.34;;;8.00;58.17
48364;BME280;34170;54.364;18.582;2023-05-10T02:34:45;100728.69;;;7.79;59.82
48364;BME280;34170;54.364;18.582;2023-05-10T02:37:20;100728.94;;;7.76;58.85
48364;BME280;34170;54.364;18.582;2023-05-10T02:39:50;100718.69;;;7.81;59.24
48364;BME280;34170;54.364;18.582;2023-05-10T02:42:19;100725.75;;;7.71;59.79
48364;BME280;34170;54.364;18.582;2023-05-10T02:44:51;100721.97;;;7.74;60.79
48364;BME280;34170;54.364;18.582;2023-05-10T02:47:20;100726.44;;;7.62;60.25
48364;BME280;34170;54.364;18.582;2023-05-10T02:49:47;100730.31;;;8.05;59.15
48364;BME280;34170;54.364;18.582;2023-05-10T02:52:21;100721.38;;;7.81;59.77
48364;BME280;34170;54.364;18.582;2023-05-10T02:54:52;100737.91;;;8.11;58.74
48364;BME280;34170;54.364;18.582;2023-05-10T02:57:26;100731.00;;;7.73;60.15
48364;BME280;34170;54.364;18.582;2023-05-10T02:59:54;100733.16;;;7.68;60.39
48364;BME280;34170;54.364;18.582;2023-05-10T03:02:21;100730.22;;;8.06;58.88
48364;BME280;34170;54.364;18.582;2023-05-10T03:04:49;100735.25;;;8.22;58.65
48364;BME280;34170;54.364;18.582;2023-05-10T03:07:17;100737.75;;;8.01;58.89
48364;BME280;34170;54.364;18.582;2023-05-10T03:09:48;100732.09;;;7.81;60.04
48364;BME280;34170;54.364;18.582;2023-05-10T03:15:25;100742.06;;;8.26;58.25
48364;BME280;34170;54.364;18.582;2023-05-10T03:18:10;100728.97;;;7.88;58.76
48364;BME280;34170;54.364;18.582;2023-05-10T03:20:42;100735.25;;;7.75;60.00
48364;BME280;34170;54.364;18.582;2023-05-10T03:25:46;100737.50;;;8.51;57.48
48364;BME280;34170;54.364;18.582;2023-05-10T03:28:17;100736.34;;;8.19;57.85
48364;BME280;34170;54.364;18.582;2023-05-10T03:30:46;100739.44;;;8.49;56.82
48364;BME280;34170;54.364;18.582;2023-05-10T03:33:14;100739.56;;;8.47;56.83
48364;BME280;34170;54.364;18.582;2023-05-10T03:35:44;100737.50;;;8.85;55.88
48364;BME280;34170;54.364;18.582;2023-05-10T03:38:14;100734.41;;;8.33;57.11
48364;BME280;34170;54.364;18.582;2023-05-10T03:40:41;100735.66;;;9.51;53.90
48364;BME280;34170;54.364;18.582;2023-05-10T03:43:08;100736.31;;;9.97;50.82
48364;BME280;34170;54.364;18.582;2023-05-10T03:45:36;100738.78;;;9.89;51.19
48364;BME280;34170;54.364;18.582;2023-05-10T03:48:04;100743.06;;;9.59;51.61
48364;BME280;34170;54.364;18.582;2023-05-10T03:50:32;100740.16;;;9.83;51.63
48364;BME280;34170;54.364;18.582;2023-05-10T03:52:59;100739.69;;;10.62;48.43
48364;BME280;34170;54.364;18.582;2023-05-10T03:55:27;100737.88;;;10.73;48.87
48364;BME280;34170;54.364;18.582;2023-05-10T03:57:56;100731.84;;;10.07;48.77
48364;BME280;34170;54.364;18.582;2023-05-10T04:00:23;100737.69;;;10.13;50.13
48364;BME280;34170;54.364;18.582;2023-05-10T04:02:54;100736.91;;;11.34;45.69
48364;BME280;34170;54.364;18.582;2023-05-10T04:05:22;100742.91;;;12.15;44.67
48364;BME280;34170;54.364;18.582;2023-05-10T04:07:52;100739.69;;;10.62;47.17
48364;BME280;34170;54.364;18.582;2023-05-10T04:10:19;100739.06;;;10.49;48.35
48364;BME280;34170;54.364;18.582;2023-05-10T04:12:46;100733.09;;;13.72;39.78
48364;BME280;34170;54.364;18.582;2023-05-10T04:15:14;100742.00;;;12.44;42.45
48364;BME280;34170;54.364;18.582;2023-05-10T04:17:41;100738.91;;;14.04;39.76
48364;BME280;34170;54.364;18.582;2023-05-10T04:20:09;100732.09;;;12.72;41.35
48364;BME280;34170;54.364;18.582;2023-05-10T04:22:37;100731.47;;;11.94;42.20
48364;BME280;34170;54.364;18.582;2023-05-10T04:25:04;100745.66;;;10.66;45.87
48364;BME280;34170;54.364;18.582;2023-05-10T04:27:32;100733.28;;;12.60;42.09
48364;BME280;34170;54.364;18.582;2023-05-10T04:29:59;100732.84;;;12.27;42.90
48364;BME280;34170;54.364;18.582;2023-05-10T04:32:27;100736.81;;;10.85;45.53
48364;BME280;34170;54.364;18.582;2023-05-10T04:34:55;100744.28;;;12.39;43.01
48364;BME280;34170;54.364;18.582;2023-05-10T04:37:22;100733.25;;;11.64;43.30
48364;BME280;34170;54.364;18.582;2023-05-10T04:39:49;100729.03;;;11.81;43.87
48364;BME280;34170;54.364;18.582;2023-05-10T04:42:17;100735.47;;;13.94;39.26
48364;BME280;34170;54.364;18.582;2023-05-10T04:44:44;100730.16;;;12.92;39.60
48364;BME280;34170;54.364;18.582;2023-05-10T04:47:12;100743.06;;;13.72;39.21
48364;BME280;34170;54.364;18.582;2023-05-10T04:49:40;100744.91;;;16.68;33.70
48364;BME280;34170;54.364;18.582;2023-05-10T04:52:07;100738.47;;;14.08;38.18
48364;BME280;34170;54.364;18.582;2023-05-10T04:54:35;100738.31;;;13.10;39.95
48364;BME280;34170;54.364;18.582;2023-05-10T04:57:03;100746.44;;;14.89;36.60
48364;BME280;34170;54.364;18.582;2023-05-10T04:59:31;100733.66;;;15.99;34.50
48364;BME280;34170;54.364;18.582;2023-05-10T05:01:58;100731.72;;;13.50;39.02
48364;BME280;34170;54.364;18.582;2023-05-10T05:04:26;100733.41;;;13.24;39.86
48364;BME280;34170;54.364;18.582;2023-05-10T05:06:53;100740.44;;;14.77;37.06
48364;BME280;34170;54.364;18.582;2023-05-10T05:09:20;100732.88;;;15.31;35.93
48364;BME280;34170;54.364;18.582;2023-05-10T05:11:48;100737.41;;;14.54;36.86
48364;BME280;34170;54.364;18.582;2023-05-10T05:14:15;100735.53;;;16.79;33.47
48364;BME280;34170;54.364;18.582;2023-05-10T05:16:43;100734.31;;;16.98;31.64
48364;BME280;34170;54.364;18.582;2023-05-10T05:19:10;100745.25;;;19.41;29.17
48364;BME280;34170;54.364;18.582;2023-05-10T05:21:38;100748.75;;;20.43;27.03
48364;BME280;34170;54.364;18.582;2023-05-10T05:24:06;100740.28;;;16.05;32.99
48364;BME280;34170;54.364;18.582;2023-05-10T05:26:34;100740.19;;;16.62;31.78
48364;BME280;34170;54.364;18.582;2023-05-10T05:29:02;100746.22;;;15.24;34.67
48364;BME280;34170;54.364;18.582;2023-05-10T05:31:30;100736.97;;;15.68;34.13
48364;BME280;34170;54.364;18.582;2023-05-10T05:33:58;100744.97;;;21.07;26.76
48364;BME280;34170;54.364;18.582;2023-05-10T05:36:29;100757.91;;;24.04;22.96
48364;BME280;34170;54.364;18.582;2023-05-10T05:38:59;100753.56;;;27.70;19.25
48364;BME280;34170;54.364;18.582;2023-05-10T05:41:27;100739.38;;;21.35;23.66
48364;BME280;34170;54.364;18.582;2023-05-10T05:43:54;100743.94;;;24.99;21.73
48364;BME280;34170;54.364;18.582;2023-05-10T05:46:22;100736.22;;;21.25;25.19
48364;BME280;34170;54.364;18.582;2023-05-10T05:48:50;100735.50;;;22.78;24.96
48364;BME280;34170;54.364;18.582;2023-05-10T05:51:18;100739.25;;;24.63;22.25
48364;BME280;34170;54.364;18.582;2023-05-10T05:53:45;100746.03;;;28.62;18.50
48364;BME280;34170;54.364;18.582;2023-05-10T05:56:13;100757.34;;;31.10;15.86
48364;BME280;34170;54.364;18.582;2023-05-10T05:58:40;100743.72;;;25.80;19.05
48364;BME280;34170;54.364;18.582;2023-05-10T06:01:07;100740.13;;;26.45;19.89
48364;BME280;34170;54.364;18.582;2023-05-10T06:03:35;100737.41;;;22.84;22.83
48364;BME280;34170;54.364;18.582;2023-05-10T06:06:03;100746.06;;;25.64;21.25
48364;BME280;34170;54.364;18.582;2023-05-10T06:08:30;100739.13;;;24.76;21.26
48364;BME280;34170;54.364;18.582;2023-05-10T06:10:58;100744.50;;;28.54;18.29
48364;BME280;34170;54.364;18.582;2023-05-10T06:13:25;100730.91;;;26.87;18.98
48364;BME280;34170;54.364;18.582;2023-05-10T06:15:56;100737.78;;;19.13;27.72
48364;BME280;34170;54.364;18.582;2023-05-10T06:18:23;100741.09;;;23.55;22.89
48364;BME280;34170;54.364;18.582;2023-05-10T06:20:51;100736.34;;;24.95;21.96
48364;BME280;34170;54.364;18.582;2023-05-10T06:23:18;100726.00;;;21.47;24.26
48364;BME280;34170;54.364;18.582;2023-05-10T06:25:46;100735.56;;;22.51;24.64
48364;BME280;34170;54.364;18.582;2023-05-10T06:28:13;100742.84;;;20.11;26.10
48364;BME280;34170;54.364;18.582;2023-05-10T06:30:41;100734.81;;;25.17;21.97
48364;BME280;34170;54.364;18.582;2023-05-10T06:33:08;100728.53;;;21.62;25.16
48364;BME280;34170;54.364;18.582;2023-05-10T06:35:36;100723.03;;;21.55;25.17
48364;BME280;34170;54.364;18.582;2023-05-10T06:38:03;100729.44;;;21.21;26.05
48364;BME280;34170;54.364;18.582;2023-05-10T06:40:31;100728.63;;;24.66;22.69
48364;BME280;34170;54.364;18.582;2023-05-10T06:42:58;100732.81;;;23.23;23.61
48364;BME280;34170;54.364;18.582;2023-05-10T06:45:26;100724.56;;;18.65;30.26
48364;BME280;34170;54.364;18.582;2023-05-10T06:47:53;100732.81;;;20.46;26.65
48364;BME280;34170;54.364;18.582;2023-05-10T06:50:21;100718.09;;;20.19;27.99
48364;BME280;34170;54.364;18.582;2023-05-10T06:52:48;100733.16;;;27.42;20.07
48364;BME280;34170;54.364;18.582;2023-05-10T06:55:19;100726.00;;;25.45;20.78
48364;BME280;34170;54.364;18.582;2023-05-10T06:57:46;100711.47;;;21.46;24.37
48364;BME280;34170;54.364;18.582;2023-05-10T07:00:15;100720.81;;;21.17;24.40
48364;BME280;34170;54.364;18.582;2023-05-10T07:02:43;100710.13;;;21.29;25.04
48364;BME280;34170;54.364;18.582;2023-05-10T07:05:10;100710.72;;;22.33;24.61
48364;BME280;34170;54.364;18.582;2023-05-10T07:07:38;100718.94;;;23.95;22.54
48364;BME280;34170;54.364;18.582;2023-05-10T07:10:07;100716.53;;;19.23;28.22
48364;BME280;34170;54.364;18.582;2023-05-10T07:12:34;100728.50;;;23.47;23.83
48364;BME280;34170;54.364;18.582;2023-05-10T07:15:02;100723.44;;;24.58;22.70
48364;BME280;34170;54.364;18.582;2023-05-10T07:17:30;100730.63;;;23.45;23.45
48364;BME280;34170;54.364;18.582;2023-05-10T07:19:58;100716.03;;;22.99;22.96
48364;BME280;34170;54.364;18.582;2023-05-10T07:22:27;100719.03;;;25.43;21.76
48364;BME280;34170;54.364;18.582;2023-05-10T07:24:54;100718.28;;;24.18;22.46
48364;BME280;34170;54.364;18.582;2023-05-10T07:27:21;100715.19;;;20.21;26.27
48364;BME280;34170;54.364;18.582;2023-05-10T07:29:49;100711.28;;;21.55;25.51
48364;BME280;34170;54.364;18.582;2023-05-10T07:32:16;100715.88;;;22.88;23.98
48364;BME280;34170;54.364;18.582;2023-05-10T07:34:44;100735.47;;;24.13;22.01
48364;BME280;34170;54.364;18.582;2023-05-10T07:37:11;100709.06;;;20.75;25.10
48364;BME280;34170;54.364;18.582;2023-05-10T07:39:39;100713.97;;;21.41;25.24
48364;BME280;34170;54.364;18.582;2023-05-10T07:42:06;100703.75;;;22.10;24.08
48364;BME280;34170;54.364;18.582;2023-05-10T07:44:34;100714.16;;;23.45;23.34
48364;BME280;34170;54.364;18.582;2023-05-10T07:47:01;100713.81;;;25.04;21.10
48364;BME280;34170;54.364;18.582;2023-05-10T07:49:29;100706.41;;;24.24;21.45
48364;BME280;34170;54.364;18.582;2023-05-10T07:51:56;100717.34;;;26.85;19.65
48364;BME280;34170;54.364;18.582;2023-05-10T07:54:23;100704.38;;;22.52;23.44
48364;BME280;34170;54.364;18.582;2023-05-10T07:56:51;100713.13;;;24.90;21.11
48364;BME280;34170;54.364;18.582;2023-05-10T07:59:18;100713.91;;;24.98;20.96
48364;BME280;34170;54.364;18.582;2023-05-10T08:01:46;100713.22;;;21.19;23.63
48364;BME280;34170;54.364;18.582;2023-05-10T08:04:13;100708.31;;;20.25;24.24
48364;BME280;34170;54.364;18.582;2023-05-10T08:06:41;100711.69;;;23.30;21.66
48364;BME280;34170;54.364;18.582;2023-05-10T08:09:09;100707.75;;;20.64;24.32
48364;BME280;34170;54.364;18.582;2023-05-10T08:11:36;100701.91;;;20.46;24.84
48364;BME280;34170;54.364;18.582;2023-05-10T08:14:04;100713.91;;;23.78;22.38
48364;BME280;34170;54.364;18.582;2023-05-10T08:16:31;100709.66;;;19.86;24.90
48364;BME280;34170;54.364;18.582;2023-05-10T08:18:59;100694.00;;;21.47;23.13
48364;BME280;34170;54.364;18.582;2023-05-10T08:21:27;100698.72;;;23.51;21.73
48364;BME280;34170;54.364;18.582;2023-05-10T08:23:54;100695.63;;;23.66;21.28
48364;BME280;34170;54.364;18.582;2023-05-10T08:26:22;100684.97;;;21.47;22.72
48364;BME280;34170;54.364;18.582;2023-05-10T08:28:49;100690.41;;;19.14;25.18
48364;BME280;34170;54.364;18.582;2023-05-10T08:31:17;100693.19;;;20.57;23.07
48364;BME280;34170;54.364;18.582;2023-05-10T08:33:45;100708.94;;;18.74;24.68
48364;BME280;34170;54.364;18.582;2023-05-10T08:36:12;100667.50;;;21.55;23.04
48364;BME280;34170;54.364;18.582;2023-05-10T08:38:42;100693.09;;;21.33;22.71
48364;BME280;34170;54.364;18.582;2023-05-10T08:41:09;100666.22;;;20.89;23.39
48364;BME280;34170;54.364;18.582;2023-05-10T08:43:38;100687.00;;;18.91;25.40
48364;BME280;34170;54.364;18.582;2023-05-10T08:46:07;100681.19;;;20.23;23.56
48364;BME280;34170;54.364;18.582;2023-05-10T08:48:37;100707.50;;;19.23;24.76
48364;BME280;34170;54.364;18.582;2023-05-10T08:51:05;100671.28;;;19.72;23.72
48364;BME280;34170;54.364;18.582;2023-05-10T08:53:36;100665.25;;;19.12;24.19
48364;BME280;34170;54.364;18.582;2023-05-10T08:56:04;100670.81;;;22.63;21.71
48364;BME280;34170;54.364;18.582;2023-05-10T08:58:32;100662.88;;;20.93;23.06
48364;BME280;34170;54.364;18.582;2023-05-10T09:01:00;100671.09;;;18.94;24.59
48364;BME280;34170;54.364;18.582;2023-05-10T09:03:28;100666.31;;;19.76;23.75
48364;BME280;34170;54.364;18.582;2023-05-10T09:05:56;100670.66;;;20.90;22.64
48364;BME280;34170;54.364;18.582;2023-05-10T09:08:25;100671.41;;;19.21;23.80
48364;BME280;34170;54.364;18.582;2023-05-10T09:10:54;100660.72;;;19.04;23.79
48364;BME280;34170;54.364;18.582;2023-05-10T09:13:22;100660.41;;;18.63;23.84
48364;BME280;34170;54.364;18.582;2023-05-10T09:15:51;100662.56;;;18.82;24.17
48364;BME280;34170;54.364;18.582;2023-05-10T09:18:19;100670.06;;;19.32;23.89
48364;BME280;34170;54.364;18.582;2023-05-10T09:20:46;100674.03;;;19.51;23.64
48364;BME280;34170;54.364;18.582;2023-05-10T09:23:14;100674.09;;;18.70;24.51
48364;BME280;34170;54.364;18.582;2023-05-10T09:25:42;100682.94;;;18.57;24.60
48364;BME280;34170;54.364;18.582;2023-05-10T09:28:09;100679.38;;;18.26;24.92
48364;BME280;34170;54.364;18.582;2023-05-10T09:30:38;100660.06;;;19.39;23.81
48364;BME280;34170;54.364;18.582;2023-05-10T09:33:06;100656.66;;;19.73;23.21
48364;BME280;34170;54.364;18.582;2023-05-10T09:35:34;100666.44;;;19.46;22.79
48364;BME280;34170;54.364;18.582;2023-05-10T09:38:04;100667.81;;;19.20;23.53
48364;BME280;34170;54.364;18.582;2023-05-10T09:40:32;100657.97;;;19.19;23.48
48364;BME280;34170;54.364;18.582;2023-05-10T09:43:01;100655.91;;;18.40;24.29
48364;BME280;34170;54.364;18.582;2023-05-10T09:45:30;100670.16;;;19.02;24.25
48364;BME280;34170;54.364;18.582;2023-05-10T09:47:59;100651.09;;;18.27;25.08
48364;BME280;34170;54.364;18.582;2023-05-10T09:50:28;100684.03;;;19.65;24.01
48364;BME280;34170;54.364;18.582;2023-05-10T09:52:58;100663.88;;;18.72;24.55
48364;BME280;34170;54.364;18.582;2023-05-10T09:58:06;100652.84;;;19.53;24.02
48364;BME280;34170;54.364;18.582;2023-05-10T10:00:42;100640.25;;;18.94;24.66
48364;BME280;34170;54.364;18.582;2023-05-10T10:03:15;100661.38;;;20.49;23.32
48364;BME280;34170;54.364;18.582;2023-05-10T10:05:43;100658.19;;;19.61;23.36
48364;BME280;34170;54.364;18.582;2023-05-10T10:08:12;100657.13;;;18.82;24.64
48364;BME280;34170;54.364;18.582;2023-05-10T10:10:40;100660.13;;;18.43;25.63
48364;BME280;34170;54.364;18.582;2023-05-10T10:13:08;100627.81;;;19.21;24.39
48364;BME280;34170;54.364;18.582;2023-05-10T10:15:35;100660.66;;;19.56;24.18
48364;BME280;34170;54.364;18.582;2023-05-10T10:18:04;100633.09;;;19.08;24.01
48364;BME280;34170;54.364;18.582;2023-05-10T10:20:32;100640.88;;;18.59;24.29
48364;BME280;34170;54.364;18.582;2023-05-10T10:23:00;100623.72;;;20.38;23.43
48364;BME280;34170;54.364;18.582;2023-05-10T10:25:27;100629.28;;;19.45;24.03
48364;BME280;34170;54.364;18.582;2023-05-10T10:28:33;100621.94;;;19.24;23.56
48364;BME280;34170;54.364;18.582;2023-05-10T10:31:25;100604.81;;;19.73;23.72
48364;BME280;34170;54.364;18.582;2023-05-10T10:34:06;100603.72;;;19.03;25.11
48364;BME280;34170;54.364;18.582;2023-05-10T10:36:43;100605.13;;;19.42;24.04
48364;BME280;34170;54.364;18.582;2023-05-10T10:39:12;100612.09;;;18.86;24.28
48364;BME280;34170;54.364;18.582;2023-05-10T10:41:51;100608.44;;;19.80;23.68
48364;BME280;34170;54.364;18.582;2023-05-10T10:54:59;100594.75;;;18.73;24.03
48364;BME280;34170;54.364;18.582;2023-05-10T10:57:31;100585.00;;;18.19;24.38
48364;BME280;34170;54.364;18.582;2023-05-10T11:00:32;100611.75;;;17.85;24.33
48364;BME280;34170;54.364;18.582;2023-05-10T11:03:06;100588.16;;;18.67;23.90
48364;BME280;34170;54.364;18.582;2023-05-10T11:08:15;100597.69;;;18.26;23.82
48364;BME280;34170;54.364;18.582;2023-05-10T11:11:10;100592.16;;;18.20;23.87
48364;BME280;34170;54.364;18.582;2023-05-10T11:13:46;100588.69;;;18.77;24.69
48364;BME280;34170;54.364;18.582;2023-05-10T11:16:22;100579.94;;;17.86;25.14
48364;BME280;34170;54.364;18.582;2023-05-10T11:18:58;100595.59;;;17.46;25.57
48364;BME280;34170;54.364;18.582;2023-05-10T11:21:26;100581.38;;;17.73;25.62
48364;BME280;34170;54.364;18.582;2023-05-10T11:23:58;100582.13;;;18.05;24.97
48364;BME280;34170;54.364;18.582;2023-05-10T11:26:35;100583.34;;;18.18;25.34
48364;BME280;34170;54.364;18.582;2023-05-10T11:29:03;100582.00;;;17.99;25.45
48364;BME280;34170;54.364;18.582;2023-05-10T11:31:32;100599.84;;;18.01;25.72
48364;BME280;34170;54.364;18.582;2023-05-10T11:34:00;100584.09;;;18.26;25.67
48364;BME280;34170;54.364;18.582;2023-05-10T11:36:33;100594.03;;;18.34;25.79
48364;BME280;34170;54.364;18.582;2023-05-10T11:39:01;100576.44;;;17.16;25.82
48364;BME280;34170;54.364;18.582;2023-05-10T11:41:30;100578.22;;;17.85;25.49
48364;BME280;34170;54.364;18.582;2023-05-10T11:43:58;100573.38;;;17.95;25.97
48364;BME280;34170;54.364;18.582;2023-05-10T11:46:27;100573.81;;;17.84;25.77
48364;BME280;34170;54.364;18.582;2023-05-10T11:49:00;100585.38;;;17.48;26.15
48364;BME280;34170;54.364;18.582;2023-05-10T11:51:29;100580.44;;;17.81;25.90
48364;BME280;34170;54.364;18.582;2023-05-10T11:53:57;100577.66;;;17.75;26.46
48364;BME280;34170;54.364;18.582;2023-05-10T11:56:24;100572.63;;;18.16;25.16
48364;BME280;34170;54.364;18.582;2023-05-10T11:58:55;100559.69;;;18.18;25.34
48364;BME280;34170;54.364;18.582;2023-05-10T12:01:26;100563.06;;;17.90;26.22
48364;BME280;34170;54.364;18.582;2023-05-10T12:03:55;100578.09;;;18.01;26.45
48364;BME280;34170;54.364;18.582;2023-05-10T12:06:30;100568.91;;;17.79;26.46
48364;BME280;34170;54.364;18.582;2023-05-10T12:08:58;100572.75;;;17.85;26.59
48364;BME280;34170;54.364;18.582;2023-05-10T12:11:27;100565.31;;;18.02;26.55
48364;BME280;34170;54.364;18.582;2023-05-10T12:13:55;100582.56;;;18.24;26.47
48364;BME280;34170;54.364;18.582;2023-05-10T12:16:25;100584.28;;;18.10;26.13
48364;BME280;34170;54.364;18.582;2023-05-10T12:18:57;100580.66;;;17.80;25.42
48364;BME280;34170;54.364;18.582;2023-05-10T12:21:28;100567.19;;;17.48;25.57
48364;BME280;34170;54.364;18.582;2023-05-10T12:23:59;100560.44;;;18.27;25.26
48364;BME280;34170;54.364;18.582;2023-05-10T12:26:28;100548.25;;;18.23;25.51
48364;BME280;34170;54.364;18.582;2023-05-10T12:29:14;100575.09;;;17.96;25.97
48364;BME280;34170;54.364;18.582;2023-05-10T12:32:03;100565.97;;;18.19;26.04
48364;BME280;34170;54.364;18.582;2023-05-10T12:34:33;100555.78;;;17.83;26.63
48364;BME280;34170;54.364;18.582;2023-05-10T12:37:02;100541.41;;;18.12;26.88
48364;BME280;34170;54.364;18.582;2023-05-10T12:39:43;100575.56;;;18.00;26.09
48364;BME280;34170;54.364;18.582;2023-05-10T12:42:11;100569.34;;;17.91;25.96
48364;BME280;34170;54.364;18.582;2023-05-10T12:44:39;100562.13;;;17.98;26.13
48364;BME280;34170;54.364;18.582;2023-05-10T12:47:07;100561.28;;;17.98;26.19
48364;BME280;34170;54.364;18.582;2023-05-10T12:49:34;100592.53;;;18.17;25.65
48364;BME280;34170;54.364;18.582;2023-05-10T12:52:01;100570.94;;;18.00;25.24
48364;BME280;34170;54.364;18.582;2023-05-10T12:54:29;100556.41;;;18.08;25.04
48364;BME280;34170;54.364;18.582;2023-05-10T12:56:56;100553.94;;;17.83;25.39
48364;BME280;34170;54.364;18.582;2023-05-10T12:59:24;100555.75;;;18.21;25.27
48364;BME280;34170;54.364;18.582;2023-05-10T13:01:51;100547.38;;;18.37;25.26
48364;BME280;34170;54.364;18.582;2023-05-10T13:04:19;100545.59;;;18.44;25.68
48364;BME280;34170;54.364;18.582;2023-05-10T13:06:46;100542.59;;;18.39;25.47
48364;BME280;34170;54.364;18.582;2023-05-10T13:09:14;100537.50;;;18.36;25.16
48364;BME280;34170;54.364;18.582;2023-05-10T13:11:42;100540.41;;;18.35;25.72
48364;BME280;34170;54.364;18.582;2023-05-10T13:14:09;100550.66;;;18.47;25.52
48364;BME280;34170;54.364;18.582;2023-05-10T13:16:37;100537.69;;;18.50;25.28
48364;BME280;34170;54.364;18.582;2023-05-10T13:19:04;100537.63;;;18.28;25.17
48364;BME280;34170;54.364;18.582;2023-05-10T13:21:32;100551.78;;;18.38;25.30
48364;BME280;34170;54.364;18.582;2023-05-10T13:24:00;100544.66;;;18.07;24.98
48364;BME280;34170;54.364;18.582;2023-05-10T13:26:29;100526.47;;;18.08;24.79
48364;BME280;34170;54.364;18.582;2023-05-10T13:28:56;100547.00;;;18.25;25.04
48364;BME280;34170;54.364;18.582;2023-05-10T13:31:24;100539.69;;;18.41;24.75
48364;BME280;34170;54.364;18.582;2023-05-10T13:33:52;100547.94;;;18.47;25.19